createdAt,value
2019-05-07T00:01:11.759Z,76.56
2019-05-07T00:03:42.185Z,75.77
2019-05-07T00:06:12.386Z,76.64
2019-05-07T00:08:44.698Z,76.46
2019-05-07T00:11:12.861Z,76.61
2019-05-07T00:13:44.127Z,76.54
2019-05-07T00:16:12.950Z,76.62
2019-05-07T00:18:42.912Z,76.81
2019-05-07T00:21:12.668Z,76.69
2019-05-07T00:23:43.270Z,76.76
2019-05-07T00:26:13.220Z,76.27
2019-05-07T00:28:43.423Z,76.21
2019-05-07T00:31:12.558Z,76.29
2019-05-07T00:33:43.263Z,76.13
2019-05-07T00:36:32.374Z,76.55
2019-05-07T00:39:19.137Z,76.34
2019-05-07T00:41:57.880Z,76.46
2019-05-07T00:44:26.914Z,76.86
2019-05-07T00:46:55.920Z,76.85
2019-05-07T00:49:26.745Z,76.54
2019-05-07T00:51:55.747Z,76.66
2019-05-07T00:54:24.794Z,77.14
2019-05-07T00:56:54.691Z,77.18
2019-05-07T00:59:24.733Z,77.54
2019-05-07T01:01:54.723Z,78.13
2019-05-07T01:04:24.753Z,77.69
2019-05-07T01:06:54.727Z,78.79
2019-05-07T01:09:24.685Z,78.53
2019-05-07T01:11:54.665Z,78.43
2019-05-07T01:14:24.731Z,78.21
2019-05-07T01:16:54.695Z,77.71
2019-05-07T01:19:24.767Z,77.39
2019-05-07T01:21:54.731Z,77.09
2019-05-07T01:24:24.772Z,77.15
2019-05-07T01:26:53.817Z,76.93
2019-05-07T01:29:23.190Z,76.82
2019-05-07T01:31:58.331Z,76.56
2019-05-07T01:34:52.488Z,75.69
2019-05-07T01:37:23.096Z,75.29
2019-05-07T01:39:52.909Z,74.27
2019-05-07T01:42:22.323Z,74.07
2019-05-07T01:44:52.820Z,73.99
2019-05-07T01:47:23.785Z,74.26
2019-05-07T01:49:55.121Z,74.11
2019-05-07T01:52:24.003Z,74.81
2019-05-07T01:54:53.313Z,74.81
2019-05-07T01:57:23.175Z,74.59
2019-05-07T01:59:52.906Z,74.32
2019-05-07T02:02:36.013Z,74.79
2019-05-07T02:05:33.406Z,74.79
2019-05-07T02:08:04.889Z,74.69
2019-05-07T02:10:44.731Z,74.69
2019-05-07T02:13:13.732Z,74.67
2019-05-07T02:15:56.592Z,74.99
2019-05-07T02:18:13.546Z,74.64
2019-05-07T02:20:42.741Z,74.83
2019-05-07T02:23:12.831Z,74.69
2019-05-07T02:25:42.155Z,74.67
2019-05-07T02:28:12.846Z,74.40
2019-05-07T02:30:44.380Z,74.41
2019-05-07T02:33:13.823Z,74.24
2019-05-07T02:35:44.013Z,74.01
2019-05-07T02:38:23.029Z,73.88
2019-05-07T02:41:02.705Z,73.81
2019-05-07T02:43:33.469Z,73.57
2019-05-07T02:46:22.355Z,73.38
2019-05-07T02:48:45.920Z,73.33
2019-05-07T02:51:24.419Z,73.62
2019-05-07T02:54:13.405Z,73.53
2019-05-07T02:56:43.377Z,73.73
2019-05-07T02:59:13.766Z,73.85
2019-05-07T03:01:43.412Z,75.22
2019-05-07T03:04:13.055Z,75.22
2019-05-07T03:06:44.166Z,76.13
2019-05-07T03:09:14.555Z,74.32
2019-05-07T03:11:43.723Z,73.45
2019-05-07T03:14:14.010Z,72.45
2019-05-07T03:16:48.911Z,72.43
2019-05-07T03:19:14.787Z,72.59
2019-05-07T03:21:56.736Z,72.66
2019-05-07T03:24:52.959Z,73.03
2019-05-07T03:27:23.448Z,73.07
2019-05-07T03:30:04.331Z,73.32
2019-05-07T03:32:46.951Z,73.33
2019-05-07T03:35:38.113Z,73.65
2019-05-07T03:38:07.348Z,73.77
2019-05-07T03:40:37.308Z,73.65
2019-05-07T03:43:06.622Z,73.79
2019-05-07T03:45:54.158Z,73.46
2019-05-07T03:48:24.949Z,73.27
2019-05-07T03:50:54.010Z,73.31
2019-05-07T03:53:23.597Z,73.08
2019-05-07T03:55:53.808Z,72.80
2019-05-07T03:58:23.867Z,73.19
2019-05-07T04:00:53.742Z,73.35
2019-05-07T04:03:24.529Z,73.88
2019-05-07T04:05:53.880Z,73.79
2019-05-07T04:08:23.881Z,73.85
2019-05-07T04:10:53.982Z,73.85
2019-05-07T04:13:24.250Z,74.15
2019-05-07T04:15:53.454Z,74.19
2019-05-07T04:18:23.818Z,74.43
2019-05-07T04:20:54.052Z,74.35
2019-05-07T04:23:23.711Z,74.09
2019-05-07T04:26:19.102Z,72.71
2019-05-07T04:29:05.594Z,73.56
2019-05-07T04:31:37.100Z,74.62
2019-05-07T04:34:13.397Z,75.75
2019-05-07T04:36:45.669Z,73.63
2019-05-07T04:39:14.701Z,70.66
2019-05-07T04:41:43.788Z,69.70
2019-05-07T04:44:14.032Z,68.29
2019-05-07T04:46:47.771Z,64.76
2019-05-07T04:49:14.217Z,63.29
2019-05-07T04:51:55.208Z,61.07
2019-05-07T04:54:24.143Z,56.97
2019-05-07T04:56:53.388Z,54.85
2019-05-07T04:59:23.768Z,52.22
2019-05-07T05:01:59.676Z,50.21
2019-05-07T05:04:31.508Z,46.80
2019-05-07T05:07:01.998Z,46.60
2019-05-07T05:09:32.936Z,48.53
2019-05-07T05:12:02.699Z,45.77
2019-05-07T05:14:33.723Z,47.57
2019-05-07T05:17:03.092Z,47.30
2019-05-07T05:19:32.452Z,47.36
2019-05-07T05:22:26.508Z,50.22
2019-05-07T05:25:32.266Z,45.81
2019-05-07T05:28:02.020Z,44.71
2019-05-07T05:30:38.133Z,43.76
2019-05-07T05:33:07.176Z,43.34
2019-05-07T05:35:36.508Z,43.81
2019-05-07T05:38:06.053Z,40.08
2019-05-07T05:40:35.072Z,42.88
2019-05-07T05:43:13.925Z,42.65
2019-05-07T05:45:44.257Z,41.61
2019-05-07T05:48:13.759Z,38.56
2019-05-07T05:51:05.030Z,40.12
2019-05-07T05:53:53.022Z,42.08
2019-05-07T05:56:28.255Z,43.75
2019-05-07T05:59:37.061Z,43.44
2019-05-07T06:02:22.786Z,46.61
2019-05-07T06:05:12.607Z,45.52
2019-05-07T06:07:47.558Z,46.05
2019-05-07T06:10:38.496Z,41.53
2019-05-07T06:13:23.084Z,40.79
2019-05-07T06:16:08.544Z,38.01
2019-05-07T06:18:44.862Z,40.54
2019-05-07T06:21:24.339Z,38.99
2019-05-07T06:23:56.269Z,37.84
2019-05-07T06:26:25.346Z,36.28
2019-05-07T06:28:54.721Z,37.06
2019-05-07T06:31:23.772Z,39.35
2019-05-07T06:33:52.781Z,38.57
2019-05-07T06:36:22.077Z,34.45
2019-05-07T06:38:57.855Z,35.52
2019-05-07T06:41:44.825Z,35.32
2019-05-07T06:44:18.125Z,38.61
2019-05-07T06:46:47.176Z,38.81
2019-05-07T06:49:16.199Z,41.17
2019-05-07T06:51:47.758Z,44.06
2019-05-07T06:54:15.997Z,46.19
2019-05-07T06:56:45.424Z,45.23
2019-05-07T06:59:23.261Z,48.10
2019-05-07T07:02:22.568Z,51.32
2019-05-07T07:04:57.860Z,54.05
2019-05-07T07:07:36.575Z,58.62
2019-05-07T07:10:22.649Z,59.45
2019-05-07T07:12:53.075Z,63.66
2019-05-07T07:15:23.179Z,62.49
2019-05-07T07:17:52.632Z,63.39
2019-05-07T07:20:21.947Z,63.67
2019-05-07T07:22:52.057Z,61.77
2019-05-07T07:25:22.958Z,59.25
2019-05-07T07:27:52.179Z,56.99
2019-05-07T07:30:42.030Z,55.93
2019-05-07T07:33:12.184Z,55.52
2019-05-07T07:35:42.853Z,53.17
2019-05-07T07:38:30.222Z,51.83
2019-05-07T07:41:18.225Z,51.54
2019-05-07T07:43:47.269Z,50.23
2019-05-07T07:46:16.717Z,51.48
2019-05-07T07:48:45.882Z,51.58
2019-05-07T07:51:15.005Z,53.77
2019-05-07T07:53:44.124Z,54.51
2019-05-07T07:56:49.042Z,54.26
2019-05-07T07:59:22.031Z,54.20
2019-05-07T08:02:02.918Z,51.87
2019-05-07T08:04:32.174Z,51.92
2019-05-07T08:07:04.494Z,53.38
2019-05-07T08:09:34.939Z,56.29
2019-05-07T08:12:04.616Z,58.00
2019-05-07T08:14:33.680Z,60.50
2019-05-07T08:17:04.617Z,58.61
2019-05-07T08:19:33.678Z,61.64
2019-05-07T08:22:03.174Z,60.68
2019-05-07T08:24:32.393Z,58.70
2019-05-07T08:27:02.381Z,59.22
2019-05-07T08:29:32.535Z,55.76
2019-05-07T08:32:22.122Z,53.53
2019-05-07T08:34:55.471Z,51.17
2019-05-07T08:37:24.640Z,50.96
2019-05-07T08:39:53.675Z,49.65
2019-05-07T08:42:22.992Z,46.87
2019-05-07T08:45:00.034Z,50.12
2019-05-07T08:47:35.784Z,49.57
2019-05-07T08:50:05.169Z,47.47
2019-05-07T08:52:34.181Z,48.44
2019-05-07T08:55:03.229Z,47.06
2019-05-07T08:57:32.238Z,48.85
2019-05-07T09:00:04.541Z,48.14
2019-05-07T09:02:32.702Z,46.33
2019-05-07T09:05:03.001Z,43.72
2019-05-07T09:12:53.848Z,47.17
2019-05-07T09:15:23.058Z,46.79
2019-05-07T09:17:52.708Z,49.79
2019-05-07T09:20:22.851Z,50.14
2019-05-07T09:22:52.030Z,49.71
2019-05-07T09:25:22.253Z,49.05
2019-05-07T09:27:52.780Z,47.83
2019-05-07T09:30:56.584Z,46.63
2019-05-07T09:33:35.260Z,45.32
2019-05-07T09:36:05.449Z,44.43
2019-05-07T09:38:34.463Z,44.22
2019-05-07T09:41:03.474Z,45.90
2019-05-07T09:43:32.841Z,46.55
2019-05-07T09:46:02.724Z,44.72
2019-05-07T09:48:33.836Z,45.26
2019-05-07T09:51:02.692Z,46.54
2019-05-07T09:53:32.127Z,45.24
2019-05-07T09:56:02.130Z,43.59
2019-05-07T09:58:36.730Z,42.74
2019-05-07T10:01:02.474Z,44.18
2019-05-07T10:03:32.420Z,43.77
2019-05-07T10:06:02.409Z,39.69
2019-05-07T10:08:32.258Z,41.87
2019-05-07T10:11:02.730Z,44.27
2019-05-07T10:13:42.571Z,45.25
2019-05-07T10:16:13.037Z,42.46
2019-05-07T10:18:42.721Z,45.38
2019-05-07T10:21:12.758Z,47.47
2019-05-07T10:23:42.055Z,47.78
2019-05-07T10:26:12.154Z,48.87
2019-05-07T10:28:42.495Z,48.68
2019-05-07T10:31:11.647Z,49.43
2019-05-07T10:33:42.189Z,48.10
2019-05-07T10:36:12.507Z,43.80
2019-05-07T10:38:41.643Z,41.86
2019-05-07T10:41:12.131Z,43.23
2019-05-07T10:43:42.849Z,43.90
2019-05-07T10:46:31.931Z,45.47
2019-05-07T10:49:14.433Z,42.34
2019-05-07T10:51:43.474Z,41.29
2019-05-07T10:54:12.694Z,41.92
2019-05-07T10:56:41.979Z,41.53
2019-05-07T10:59:12.186Z,43.42
2019-05-07T11:01:46.865Z,42.89
2019-05-07T11:04:15.914Z,41.32
2019-05-07T11:06:44.916Z,41.58
2019-05-07T11:09:13.979Z,46.07
2019-05-07T11:11:42.991Z,45.82
2019-05-07T11:14:12.352Z,47.56
2019-05-07T11:16:52.165Z,49.15
2019-05-07T11:19:22.094Z,49.14
2019-05-07T11:21:52.133Z,47.17
2019-05-07T11:24:21.353Z,46.53
2019-05-07T11:26:50.457Z,41.72
2019-05-07T11:29:19.487Z,42.51
2019-05-07T11:31:48.852Z,42.36
2019-05-07T11:34:17.903Z,39.39
2019-05-07T11:36:46.969Z,39.92
2019-05-07T11:39:15.978Z,41.90
2019-05-07T11:42:08.080Z,43.63
2019-05-07T11:44:37.096Z,43.64
2019-05-07T11:47:24.455Z,44.08
2019-05-07T11:50:11.963Z,45.63
2019-05-07T11:52:45.573Z,46.15
2019-05-07T11:55:14.785Z,48.79
2019-05-07T11:57:44.506Z,48.25
2019-05-07T12:00:23.865Z,48.25
2019-05-07T12:02:52.992Z,46.32
2019-05-07T12:05:22.690Z,44.06
2019-05-07T12:07:51.977Z,42.65
2019-05-07T12:10:22.247Z,43.19
2019-05-07T12:12:52.110Z,36.30
2019-05-07T12:15:21.720Z,44.36
2019-05-07T12:17:52.135Z,45.35
2019-05-07T12:20:21.913Z,46.05
2019-05-07T12:22:52.143Z,45.30
2019-05-07T12:25:21.825Z,43.46
2019-05-07T12:27:52.459Z,46.51
2019-05-07T12:30:43.226Z,45.02
2019-05-07T12:33:22.656Z,43.76
2019-05-07T12:35:52.494Z,42.89
2019-05-07T12:38:22.055Z,43.08
2019-05-07T12:40:52.381Z,46.13
2019-05-07T12:43:21.568Z,43.54
2019-05-07T12:45:52.485Z,43.17
2019-05-07T12:48:21.834Z,42.68
2019-05-07T12:50:52.276Z,43.26
2019-05-07T12:53:42.419Z,44.02
2019-05-07T12:56:11.543Z,41.64
2019-05-07T12:58:40.584Z,41.65
2019-05-07T13:01:17.943Z,38.86
2019-05-07T13:04:04.643Z,42.02
2019-05-07T13:06:37.009Z,42.55
2019-05-07T13:09:06.968Z,41.74
2019-05-07T13:11:36.074Z,40.78
2019-05-07T13:14:05.178Z,41.34
2019-05-07T13:16:34.455Z,38.45
2019-05-07T13:19:03.509Z,38.15
2019-05-07T13:21:46.491Z,36.41
2019-05-07T13:24:03.339Z,36.29
2019-05-07T13:26:32.447Z,37.73
2019-05-07T13:29:02.494Z,37.89
2019-05-07T13:31:33.069Z,36.87
2019-05-07T13:34:03.227Z,36.98
2019-05-07T13:36:32.685Z,38.83
2019-05-07T13:39:13.181Z,37.38
2019-05-07T13:42:02.174Z,37.24
2019-05-07T13:44:52.752Z,35.02
2019-05-07T13:47:34.461Z,37.49
2019-05-07T13:50:03.632Z,36.50
2019-05-07T13:52:34.070Z,36.93
2019-05-07T13:55:03.172Z,36.33
2019-05-07T13:57:32.384Z,38.22
2019-05-07T14:00:02.404Z,36.68
2019-05-07T14:02:32.540Z,34.32
2019-05-07T14:05:01.959Z,36.77
2019-05-07T14:07:33.811Z,36.11
2019-05-07T14:10:03.027Z,35.43
2019-05-07T14:12:33.806Z,35.43
2019-05-07T14:15:02.971Z,34.29
2019-05-07T14:17:31.980Z,36.16
2019-05-07T14:20:01.856Z,36.16
2019-05-07T14:22:32.049Z,34.14
2019-05-07T14:25:01.160Z,36.89
2019-05-07T14:27:32.150Z,38.16
2019-05-07T14:30:02.717Z,35.51
2019-05-07T14:32:38.736Z,36.78
2019-05-07T14:35:28.545Z,35.41
2019-05-07T14:38:01.674Z,36.26
2019-05-07T14:40:32.371Z,35.59
2019-05-07T14:43:12.672Z,37.36
2019-05-07T14:45:42.172Z,35.90
2019-05-07T14:48:12.147Z,36.02
2019-05-07T14:50:42.002Z,35.33
2019-05-07T14:53:12.553Z,36.23
2019-05-07T14:55:41.926Z,36.45
2019-05-07T14:58:12.422Z,38.25
2019-05-07T15:00:42.740Z,39.78
2019-05-07T15:03:12.596Z,36.46
2019-05-07T15:05:42.384Z,37.27
2019-05-07T15:08:14.406Z,36.97
2019-05-07T15:10:42.613Z,35.70
2019-05-07T15:13:12.752Z,35.48
2019-05-07T15:15:42.122Z,36.36
2019-05-07T15:18:22.934Z,35.85
2019-05-07T15:20:52.562Z,36.37
2019-05-07T15:23:31.294Z,38.83
2019-05-07T15:26:04.286Z,38.82
2019-05-07T15:28:32.310Z,39.65
2019-05-07T15:31:12.570Z,36.56
2019-05-07T15:33:41.862Z,38.67
2019-05-07T15:36:11.993Z,37.47
2019-05-07T15:38:42.947Z,37.39
2019-05-07T15:41:12.337Z,38.41
2019-05-07T15:43:43.905Z,37.98
2019-05-07T15:46:12.353Z,38.27
2019-05-07T15:48:42.015Z,35.47
2019-05-07T15:51:11.924Z,36.88
2019-05-07T15:54:00.100Z,39.79
2019-05-07T15:56:29.173Z,40.97
2019-05-07T15:58:58.181Z,40.07
2019-05-07T16:01:27.192Z,38.86
2019-05-07T16:03:56.232Z,39.77
2019-05-07T16:06:25.238Z,38.35
2019-05-07T16:09:02.479Z,39.52
2019-05-07T16:11:32.565Z,40.11
2019-05-07T16:14:27.591Z,38.62
2019-05-07T16:17:06.891Z,40.76
2019-05-07T16:19:35.914Z,38.66
2019-05-07T16:22:09.737Z,39.08
2019-05-07T16:24:38.781Z,39.35
2019-05-07T16:27:07.793Z,40.42
2019-05-07T16:29:37.172Z,42.05
2019-05-07T16:32:06.224Z,41.01
2019-05-07T16:34:35.281Z,41.77
2019-05-07T16:37:07.342Z,41.75
2019-05-07T16:39:35.019Z,39.78
2019-05-07T16:42:04.113Z,38.73
2019-05-07T16:44:33.238Z,38.09
2019-05-07T16:47:02.809Z,38.34
2019-05-07T16:49:32.385Z,36.03
2019-05-07T16:52:02.725Z,36.67
2019-05-07T16:54:32.329Z,37.55
2019-05-07T16:57:23.977Z,38.41
2019-05-07T16:59:52.984Z,37.26
2019-05-07T17:02:25.732Z,39.02
2019-05-07T17:05:12.140Z,40.42
2019-05-07T17:07:46.324Z,40.38
2019-05-07T17:10:15.435Z,39.54
2019-05-07T17:12:45.884Z,39.42
2019-05-07T17:15:15.032Z,40.30
2019-05-07T17:17:44.093Z,39.30
2019-05-07T17:20:13.501Z,38.92
2019-05-07T17:22:42.875Z,39.09
2019-05-07T17:25:30.201Z,40.23
2019-05-07T17:27:59.268Z,40.38
2019-05-07T17:30:28.291Z,39.78
2019-05-07T17:32:57.335Z,38.98
2019-05-07T17:35:26.268Z,38.98
2019-05-07T17:38:06.123Z,39.43
2019-05-07T17:40:26.344Z,39.59
2019-05-07T17:42:55.661Z,39.26
2019-05-07T17:45:24.728Z,39.68
2019-05-07T17:47:53.729Z,39.68
2019-05-07T17:50:27.196Z,39.31
2019-05-07T17:52:56.221Z,39.70
2019-05-07T17:55:25.288Z,40.26
2019-05-07T17:57:54.523Z,41.09
2019-05-07T18:00:23.672Z,42.26
2019-05-07T18:03:10.703Z,42.07
2019-05-07T18:05:39.752Z,41.83
2019-05-07T18:08:08.813Z,42.96
2019-05-07T18:10:37.818Z,43.65
2019-05-07T18:13:08.165Z,43.42
2019-05-07T18:15:37.579Z,44.01
2019-05-07T18:18:07.788Z,44.30
2019-05-07T18:20:36.872Z,44.12
2019-05-07T18:23:08.699Z,43.69
2019-05-07T18:25:36.868Z,44.49
2019-05-07T18:28:05.867Z,44.11
2019-05-07T18:30:34.982Z,44.54
2019-05-07T18:33:33.568Z,45.20
2019-05-07T18:36:03.275Z,45.77
2019-05-07T18:38:33.158Z,45.55
2019-05-07T18:41:03.123Z,45.32
2019-05-07T18:43:33.389Z,45.57
2019-05-07T18:46:03.063Z,45.73
2019-05-07T18:48:33.168Z,45.73
2019-05-07T18:51:03.117Z,45.71
2019-05-07T18:53:33.156Z,46.03
2019-05-07T18:56:03.119Z,47.30
2019-05-07T18:58:33.205Z,47.16
2019-05-07T19:01:08.308Z,48.06
2019-05-07T19:03:37.311Z,48.68
2019-05-07T19:06:06.336Z,48.50
2019-05-07T19:08:35.718Z,49.84
2019-05-07T19:11:05.870Z,49.38
2019-05-07T19:13:34.960Z,49.00
2019-05-07T19:16:04.018Z,50.29
2019-05-07T19:18:33.175Z,49.88
2019-05-07T19:21:06.506Z,50.77
2019-05-07T19:23:34.018Z,51.52
2019-05-07T19:26:03.231Z,51.36
2019-05-07T19:28:33.915Z,51.13
2019-05-07T19:31:03.323Z,51.68
2019-05-07T19:33:33.414Z,51.87
2019-05-07T19:36:03.310Z,52.83
2019-05-07T19:38:33.344Z,52.26
2019-05-07T19:41:03.388Z,52.20
2019-05-07T19:43:35.942Z,51.96
2019-05-07T19:46:04.666Z,52.34
2019-05-07T19:48:33.629Z,52.09
2019-05-07T19:51:03.436Z,52.69
2019-05-07T19:53:33.333Z,52.30
2019-05-07T19:56:23.548Z,52.94
2019-05-07T19:58:52.868Z,53.46
2019-05-07T20:01:29.753Z,53.70
2019-05-07T20:03:58.816Z,53.94
2019-05-07T20:06:27.837Z,53.70
2019-05-07T20:09:09.059Z,53.65
2019-05-07T20:11:55.921Z,53.95
2019-05-07T20:14:24.966Z,54.30
2019-05-07T20:16:53.983Z,54.24
2019-05-07T20:19:23.194Z,54.19
2019-05-07T20:21:52.504Z,54.55
2019-05-07T20:24:22.039Z,54.85
2019-05-07T20:26:52.665Z,54.93
2019-05-07T20:29:22.863Z,55.00
2019-05-07T20:31:53.300Z,55.58
2019-05-07T20:34:22.434Z,55.49
2019-05-07T20:36:51.868Z,56.07
2019-05-07T20:39:23.139Z,55.88
2019-05-07T20:41:52.614Z,56.16
2019-05-07T20:44:21.863Z,55.59
2019-05-07T20:46:53.423Z,55.55
2019-05-07T20:49:22.582Z,55.81
2019-05-07T20:51:52.660Z,55.48
2019-05-07T20:54:46.539Z,56.65
2019-05-07T20:57:25.012Z,57.15
2019-05-07T20:59:54.015Z,57.67
2019-05-07T21:02:23.016Z,57.59
2019-05-07T21:04:52.104Z,57.80
2019-05-07T21:07:22.229Z,58.16
2019-05-07T21:09:52.973Z,57.66
2019-05-07T21:12:22.602Z,59.27
2019-05-07T21:14:52.481Z,59.29
2019-05-07T21:17:22.671Z,59.00
2019-05-07T21:19:51.928Z,59.78
2019-05-07T21:22:22.708Z,59.96
2019-05-07T21:24:53.255Z,60.13
2019-05-07T21:27:22.488Z,59.48
2019-05-07T21:29:52.781Z,59.56
2019-05-07T21:32:23.110Z,58.70
2019-05-07T21:34:52.806Z,59.26
2019-05-07T21:37:22.868Z,59.23
2019-05-07T21:39:53.122Z,59.97
2019-05-07T21:42:22.962Z,58.82
2019-05-07T21:44:52.756Z,60.40
2019-05-07T21:47:22.277Z,60.50
2019-05-07T21:49:54.875Z,60.44
2019-05-07T21:52:23.155Z,58.40
2019-05-07T21:55:12.760Z,59.23
2019-05-07T21:57:56.949Z,60.00
2019-05-07T22:00:43.724Z,60.04
2019-05-07T22:03:15.288Z,59.26
2019-05-07T22:05:44.471Z,59.65
2019-05-07T22:08:13.799Z,60.33
2019-05-07T22:10:42.847Z,60.74
2019-05-07T22:13:12.477Z,59.69
2019-05-07T22:15:42.266Z,60.65
2019-05-07T22:18:12.012Z,61.05
2019-05-07T22:20:42.668Z,61.75
2019-05-07T22:23:11.860Z,61.74
2019-05-07T22:25:42.194Z,61.83
2019-05-07T22:28:13.354Z,62.96
2019-05-07T22:30:53.296Z,62.83
2019-05-07T22:33:30.957Z,62.83
2019-05-07T22:36:01.780Z,62.78
2019-05-07T22:38:32.356Z,63.02
2019-05-07T22:41:02.176Z,62.81
2019-05-07T22:43:31.877Z,63.13
2019-05-07T22:46:01.098Z,63.15
2019-05-07T22:48:32.452Z,64.58
2019-05-07T22:51:02.740Z,65.18
2019-05-07T22:53:32.805Z,66.70
2019-05-07T22:56:03.186Z,65.99
2019-05-07T22:58:36.710Z,65.73
2019-05-07T23:01:08.032Z,66.69
2019-05-07T23:03:37.144Z,66.06
2019-05-07T23:06:09.039Z,67.13
2019-05-07T23:08:42.358Z,65.79
2019-05-07T23:11:12.225Z,65.94
2019-05-07T23:13:42.788Z,67.50
2019-05-07T23:16:12.720Z,66.29
2019-05-07T23:18:42.890Z,66.03
2019-05-07T23:21:12.218Z,66.56
2019-05-07T23:23:42.215Z,66.79
2019-05-07T23:26:14.306Z,66.91
2019-05-07T23:28:42.155Z,68.03
2019-05-07T23:31:12.053Z,68.74
2019-05-07T23:33:41.710Z,69.07
2019-05-07T23:36:12.936Z,69.43
2019-05-07T23:38:42.644Z,68.20
2019-05-07T23:41:19.754Z,68.54
2019-05-07T23:44:06.981Z,68.39
2019-05-07T23:46:35.979Z,69.19
2019-05-07T23:49:05.008Z,67.99
2019-05-07T23:51:34.986Z,68.05
2019-05-07T23:54:05.004Z,68.37
2019-05-07T23:56:34.777Z,68.73
2019-05-07T23:59:04.846Z,68.33
